createdAt,value
2017-08-07T00:01:29.157Z,54.00
2017-08-07T00:03:55.326Z,53.90
2017-08-07T00:06:22.231Z,53.80
2017-08-07T00:08:48.379Z,53.80
2017-08-07T00:11:15.316Z,54.30
2017-08-07T00:13:41.475Z,54.20
2017-08-07T00:16:07.631Z,54.40
2017-08-07T00:18:34.534Z,54.60
2017-08-07T00:21:00.703Z,54.50
2017-08-07T00:23:26.884Z,54.70
2017-08-07T00:25:53.786Z,54.80
2017-08-07T00:28:19.964Z,54.90
2017-08-07T00:30:46.135Z,54.90
2017-08-07T00:33:13.030Z,55.40
2017-08-07T00:35:39.183Z,55.40
2017-08-07T00:38:05.382Z,55.10
2017-08-07T00:40:32.285Z,54.70
2017-08-07T00:42:58.476Z,55.40
2017-08-07T00:45:24.681Z,55.10
2017-08-07T00:47:50.842Z,54.80
2017-08-07T00:50:17.779Z,55.70
2017-08-07T00:52:44.676Z,55.70
2017-08-07T00:55:10.826Z,55.00
2017-08-07T00:57:37.738Z,55.10
2017-08-07T01:00:04.683Z,55.50
2017-08-07T01:02:31.566Z,55.10
2017-08-07T01:04:57.738Z,55.10
2017-08-07T01:07:23.880Z,55.80
2017-08-07T01:09:51.098Z,55.80
2017-08-07T01:12:17.238Z,55.70
2017-08-07T01:14:43.399Z,55.90
2017-08-07T01:17:10.299Z,55.90
2017-08-07T01:19:36.474Z,55.80
2017-08-07T01:22:02.648Z,55.80
2017-08-07T01:24:29.627Z,55.80
2017-08-07T01:26:55.767Z,55.70
2017-08-07T01:29:21.907Z,55.80
2017-08-07T01:31:48.820Z,55.80
2017-08-07T01:34:14.995Z,55.70
2017-08-07T01:36:41.174Z,55.70
2017-08-07T01:39:07.314Z,55.70
2017-08-07T01:41:33.522Z,55.70
2017-08-07T01:43:59.675Z,55.80
2017-08-07T01:46:25.842Z,55.70
2017-08-07T01:48:51.998Z,55.80
2017-08-07T01:51:18.162Z,55.70
2017-08-07T01:53:44.330Z,55.70
2017-08-07T01:56:11.270Z,55.60
2017-08-07T01:58:38.191Z,56.20
2017-08-07T02:01:05.147Z,56.60
2017-08-07T02:03:31.286Z,56.60
2017-08-07T02:05:57.486Z,56.50
2017-08-07T02:08:23.626Z,56.90
2017-08-07T02:10:49.769Z,56.80
2017-08-07T02:13:15.965Z,56.50
2017-08-07T02:15:42.110Z,56.10
2017-08-07T02:18:08.270Z,56.40
2017-08-07T02:20:34.418Z,56.80
2017-08-07T02:23:00.582Z,56.60
2017-08-07T02:25:26.719Z,56.60
2017-08-07T02:27:52.895Z,56.70
2017-08-07T02:30:19.072Z,56.40
2017-08-07T02:32:45.225Z,56.50
2017-08-07T02:35:11.360Z,56.00
2017-08-07T02:37:37.520Z,56.50
2017-08-07T02:40:03.680Z,56.20
2017-08-07T02:42:29.839Z,56.30
2017-08-07T02:44:56.028Z,56.50
2017-08-07T02:47:22.942Z,56.80
2017-08-07T02:49:49.101Z,56.80
2017-08-07T02:52:15.227Z,56.80
2017-08-07T02:54:41.381Z,57.10
2017-08-07T02:57:11.280Z,57.10
2017-08-07T02:59:37.450Z,57.30
2017-08-07T03:02:03.607Z,57.30
2017-08-07T03:04:29.803Z,57.10
2017-08-07T03:06:55.960Z,57.10
2017-08-07T03:09:22.851Z,57.20
2017-08-07T03:11:49.035Z,57.30
2017-08-07T03:14:15.167Z,57.00
2017-08-07T03:16:41.315Z,57.40
2017-08-07T03:19:08.199Z,57.40
2017-08-07T03:21:34.338Z,57.40
2017-08-07T03:24:00.478Z,57.40
2017-08-07T03:26:26.631Z,57.70
2017-08-07T03:28:52.754Z,57.50
2017-08-07T03:31:18.899Z,57.90
2017-08-07T03:33:45.763Z,58.60
2017-08-07T03:36:11.940Z,57.80
2017-08-07T03:38:38.094Z,58.00
2017-08-07T03:41:04.266Z,57.90
2017-08-07T03:43:30.440Z,58.00
2017-08-07T03:45:56.575Z,58.00
2017-08-07T03:48:22.743Z,58.10
2017-08-07T03:50:48.866Z,57.50
2017-08-07T03:53:15.010Z,57.60
2017-08-07T03:55:41.135Z,57.60
2017-08-07T03:58:08.051Z,57.80
2017-08-07T04:00:34.190Z,57.70
2017-08-07T04:03:00.343Z,57.80
2017-08-07T04:05:26.490Z,57.90
2017-08-07T04:07:52.655Z,58.10
2017-08-07T04:10:18.807Z,57.90
2017-08-07T04:12:44.999Z,58.10
2017-08-07T04:15:11.204Z,57.90
2017-08-07T04:17:37.385Z,58.00
2017-08-07T04:20:03.555Z,58.00
2017-08-07T04:22:29.694Z,58.20
2017-08-07T04:24:55.839Z,58.30
2017-08-07T04:27:21.966Z,58.30
2017-08-07T04:29:48.114Z,58.30
2017-08-07T04:32:14.265Z,58.70
2017-08-07T04:34:40.448Z,57.50
2017-08-07T04:37:06.574Z,58.00
2017-08-07T04:39:32.723Z,58.40
2017-08-07T04:41:58.875Z,57.90
2017-08-07T04:44:25.018Z,58.20
2017-08-07T04:46:51.159Z,58.60
2017-08-07T04:49:17.310Z,58.10
2017-08-07T04:51:44.204Z,58.00
2017-08-07T04:54:10.340Z,58.00
2017-08-07T04:56:36.499Z,57.90
2017-08-07T04:59:02.627Z,57.90
2017-08-07T05:01:28.775Z,57.50
2017-08-07T05:03:54.920Z,57.20
2017-08-07T05:06:21.090Z,57.50
2017-08-07T05:08:47.249Z,57.80
2017-08-07T05:11:13.382Z,57.20
2017-08-07T05:13:39.609Z,57.30
2017-08-07T05:16:05.754Z,57.00
2017-08-07T05:18:32.635Z,57.00
2017-08-07T05:21:02.440Z,57.00
2017-08-07T05:23:28.580Z,56.80
2017-08-07T05:25:54.739Z,55.90
2017-08-07T05:28:20.868Z,56.00
2017-08-07T05:30:50.284Z,56.00
2017-08-07T05:33:16.470Z,56.00
2017-08-07T05:35:42.613Z,56.00
2017-08-07T05:38:08.751Z,55.80
2017-08-07T05:40:35.628Z,56.40
2017-08-07T05:43:01.794Z,56.40
2017-08-07T05:45:27.980Z,55.70
2017-08-07T05:47:54.155Z,54.10
2017-08-07T05:50:20.345Z,54.50
2017-08-07T05:52:46.536Z,54.10
2017-08-07T05:55:13.445Z,53.20
2017-08-07T05:57:39.605Z,53.20
2017-08-07T06:00:05.770Z,52.80
2017-08-07T06:02:31.957Z,52.30
2017-08-07T06:04:58.122Z,51.30
2017-08-07T06:07:25.030Z,51.00
2017-08-07T06:09:51.194Z,51.00
2017-08-07T06:12:17.339Z,51.50
2017-08-07T06:14:43.562Z,50.90
2017-08-07T06:17:09.738Z,50.40
2017-08-07T06:19:35.890Z,49.70
2017-08-07T06:22:02.048Z,49.50
2017-08-07T06:24:28.223Z,49.20
2017-08-07T06:26:54.379Z,48.50
2017-08-07T06:29:20.521Z,48.10
2017-08-07T06:31:46.647Z,48.20
2017-08-07T06:34:12.799Z,48.20
2017-08-07T06:36:38.959Z,48.20
2017-08-07T06:39:05.163Z,47.70
2017-08-07T06:41:31.336Z,47.20
2017-08-07T06:43:57.494Z,47.60
2017-08-07T06:46:23.666Z,47.10
2017-08-07T06:48:49.830Z,46.30
2017-08-07T06:51:15.966Z,46.20
2017-08-07T06:53:42.111Z,46.80
2017-08-07T06:56:08.267Z,47.10
2017-08-07T06:58:34.422Z,46.30
2017-08-07T07:01:00.633Z,46.10
2017-08-07T07:03:26.801Z,45.70
2017-08-07T07:05:53.000Z,46.30
2017-08-07T07:08:19.175Z,45.10
2017-08-07T07:10:45.343Z,45.10
2017-08-07T07:13:12.221Z,44.80
2017-08-07T07:15:38.389Z,44.80
2017-08-07T07:18:05.351Z,44.10
2017-08-07T07:20:31.512Z,44.10
2017-08-07T07:22:57.658Z,43.00
2017-08-07T07:25:23.832Z,42.20
2017-08-07T07:27:50.055Z,42.50
2017-08-07T07:30:16.247Z,42.90
2017-08-07T07:32:42.400Z,42.90
2017-08-07T07:35:08.549Z,43.30
2017-08-07T07:37:34.695Z,42.40
2017-08-07T07:40:00.851Z,42.40
2017-08-07T07:42:26.994Z,41.90
2017-08-07T07:44:53.122Z,43.00
2017-08-07T07:47:19.295Z,42.50
2017-08-07T07:49:45.435Z,42.00
2017-08-07T07:52:11.591Z,41.60
2017-08-07T07:54:38.475Z,42.40
2017-08-07T07:57:04.659Z,42.40
2017-08-07T07:59:30.810Z,41.40
2017-08-07T08:01:56.958Z,42.10
2017-08-07T08:04:27.852Z,41.80
2017-08-07T08:06:54.135Z,40.70
2017-08-07T08:09:20.263Z,40.80
2017-08-07T08:11:46.438Z,40.80
2017-08-07T08:14:12.611Z,41.00
2017-08-07T08:16:38.775Z,41.00
2017-08-07T08:19:04.932Z,41.00
2017-08-07T08:21:31.099Z,41.10
2017-08-07T08:23:57.262Z,41.20
2017-08-07T08:26:24.178Z,41.30
2017-08-07T08:28:50.314Z,41.30
2017-08-07T08:31:17.196Z,41.50
2017-08-07T08:33:43.517Z,41.20
2017-08-07T08:36:09.672Z,41.40
2017-08-07T08:38:36.583Z,40.40
2017-08-07T08:41:02.723Z,40.40
2017-08-07T08:43:28.890Z,39.20
2017-08-07T08:45:55.048Z,39.20
2017-08-07T08:48:21.235Z,39.70
2017-08-07T08:50:47.382Z,38.80
2017-08-07T08:53:13.510Z,39.50
2017-08-07T08:55:39.699Z,38.80
2017-08-07T08:58:05.834Z,39.30
2017-08-07T09:00:31.998Z,39.50
2017-08-07T09:02:58.181Z,38.70
2017-08-07T09:05:24.382Z,38.80
2017-08-07T09:07:50.523Z,38.80
2017-08-07T09:10:16.686Z,38.70
2017-08-07T09:12:42.815Z,39.10
2017-08-07T09:15:08.974Z,37.60
2017-08-07T09:17:35.858Z,38.50
2017-08-07T09:20:02.067Z,38.50
2017-08-07T09:22:28.237Z,38.30
2017-08-07T09:24:54.383Z,38.10
2017-08-07T09:27:20.515Z,37.50
2017-08-07T09:29:46.652Z,38.00
2017-08-07T09:32:12.791Z,37.10
2017-08-07T09:34:38.918Z,37.10
2017-08-07T09:37:05.076Z,37.50
2017-08-07T09:39:31.246Z,36.90
2017-08-07T09:41:57.382Z,36.20
2017-08-07T09:44:23.518Z,36.50
2017-08-07T09:46:49.706Z,36.50
2017-08-07T09:49:15.843Z,36.20
2017-08-07T09:51:42.000Z,35.70
2017-08-07T09:54:08.140Z,35.50
2017-08-07T09:56:34.291Z,35.20
2017-08-07T09:59:01.196Z,35.60
2017-08-07T10:01:27.351Z,35.60
2017-08-07T10:03:53.739Z,34.20
2017-08-07T10:06:19.882Z,35.10
2017-08-07T10:08:46.018Z,33.60
2017-08-07T10:11:12.156Z,32.90
2017-08-07T10:13:38.306Z,32.10
2017-08-07T10:16:05.182Z,30.30
2017-08-07T10:18:31.339Z,30.20
2017-08-07T10:20:58.241Z,31.60
2017-08-07T10:23:24.390Z,31.30
2017-08-07T10:25:50.518Z,32.20
2017-08-07T10:28:16.681Z,29.70
2017-08-07T10:30:42.846Z,29.30
2017-08-07T10:33:09.039Z,29.50
2017-08-07T10:35:35.913Z,26.30
2017-08-07T10:38:02.078Z,26.20
2017-08-07T10:40:28.971Z,26.00
2017-08-07T10:42:55.902Z,26.00
2017-08-07T10:45:22.047Z,26.00
2017-08-07T10:47:48.219Z,25.50
2017-08-07T10:50:14.408Z,25.00
2017-08-07T10:52:40.566Z,25.00
2017-08-07T10:55:06.698Z,25.90
2017-08-07T10:57:32.895Z,24.90
2017-08-07T10:59:59.815Z,26.20
2017-08-07T11:02:25.938Z,26.20
2017-08-07T11:04:52.896Z,25.10
2017-08-07T11:07:19.134Z,24.50
2017-08-07T11:09:45.312Z,25.50
2017-08-07T11:12:11.489Z,25.50
2017-08-07T11:14:37.659Z,25.10
2017-08-07T11:17:03.855Z,23.50
2017-08-07T11:19:29.993Z,23.20
2017-08-07T11:21:56.142Z,25.00
2017-08-07T11:24:22.273Z,22.60
2017-08-07T11:26:48.411Z,23.00
2017-08-07T11:29:14.556Z,23.50
2017-08-07T11:31:40.731Z,23.90
2017-08-07T11:34:06.858Z,22.00
2017-08-07T11:36:33.027Z,22.00
2017-08-07T11:38:59.908Z,20.80
2017-08-07T11:41:26.081Z,20.80
2017-08-07T11:43:52.232Z,20.80
2017-08-07T11:46:18.391Z,21.10
2017-08-07T11:48:44.751Z,21.40
2017-08-07T11:51:10.957Z,20.60
2017-08-07T11:53:37.123Z,19.10
2017-08-07T11:56:03.267Z,19.20
2017-08-07T11:58:29.435Z,20.50
2017-08-07T12:00:55.563Z,19.30
2017-08-07T12:03:21.742Z,18.10
2017-08-07T12:05:47.906Z,19.10
2017-08-07T12:08:14.087Z,18.80
2017-08-07T12:10:40.246Z,18.60
2017-08-07T12:13:06.423Z,18.20
2017-08-07T12:15:33.322Z,17.30
2017-08-07T12:17:59.490Z,17.80
2017-08-07T12:20:25.700Z,16.70
2017-08-07T12:22:51.832Z,16.80
2017-08-07T12:25:21.187Z,16.60
2017-08-07T12:27:48.087Z,17.30
2017-08-07T12:30:14.262Z,17.30
2017-08-07T12:32:40.395Z,15.80
2017-08-07T12:35:06.546Z,15.00
2017-08-07T12:37:32.703Z,15.50
2017-08-07T12:39:58.881Z,14.80
2017-08-07T12:42:25.030Z,14.80
2017-08-07T12:44:51.187Z,13.20
2017-08-07T12:47:18.087Z,14.10
2017-08-07T12:49:44.253Z,13.70
2017-08-07T12:52:10.427Z,14.30
2017-08-07T12:54:36.626Z,12.90
2017-08-07T12:57:02.827Z,12.80
2017-08-07T12:59:28.971Z,14.40
2017-08-07T13:01:55.108Z,12.80
2017-08-07T13:04:21.250Z,12.90
2017-08-07T13:06:47.430Z,13.90
2017-08-07T13:09:13.597Z,14.30
2017-08-07T13:11:39.766Z,12.60
2017-08-07T13:14:05.943Z,13.10
2017-08-07T13:16:32.109Z,12.60
2017-08-07T13:18:58.281Z,12.70
2017-08-07T13:21:25.224Z,12.90
2017-08-07T13:23:51.333Z,12.90
2017-08-07T13:26:17.516Z,12.90
2017-08-07T13:28:45.478Z,12.50
2017-08-07T13:31:12.372Z,12.50
2017-08-07T13:33:38.571Z,12.50
2017-08-07T13:36:04.765Z,12.10
2017-08-07T13:38:30.931Z,12.30
2017-08-07T13:40:57.066Z,11.70
2017-08-07T13:43:23.959Z,12.10
2017-08-07T13:45:50.122Z,12.10
2017-08-07T13:48:16.271Z,11.50
2017-08-07T13:50:42.434Z,11.10
2017-08-07T13:53:09.335Z,11.50
2017-08-07T13:55:35.495Z,11.50
2017-08-07T13:58:01.610Z,11.10
2017-08-07T14:00:27.774Z,12.00
2017-08-07T14:02:53.938Z,11.70
2017-08-07T14:05:24.206Z,12.20
2017-08-07T14:07:51.079Z,12.90
2017-08-07T14:10:17.275Z,12.80
2017-08-07T14:12:43.428Z,13.40
2017-08-07T14:15:09.580Z,14.20
2017-08-07T14:17:35.747Z,14.60
2017-08-07T14:20:01.959Z,15.30
2017-08-07T14:22:28.129Z,14.90
2017-08-07T14:24:54.300Z,15.50
2017-08-07T14:27:24.904Z,15.70
2017-08-07T14:29:51.145Z,16.00
2017-08-07T14:32:17.584Z,16.20
2017-08-07T14:34:43.739Z,16.80
2017-08-07T14:37:09.947Z,16.90
2017-08-07T14:39:36.083Z,16.90
2017-08-07T14:42:02.239Z,17.30
2017-08-07T14:44:28.387Z,17.20
2017-08-07T14:46:54.538Z,17.40
2017-08-07T14:49:21.471Z,17.30
2017-08-07T14:51:48.390Z,17.80
2017-08-07T14:54:14.535Z,17.70
2017-08-07T14:56:40.711Z,17.30
2017-08-07T14:59:06.878Z,17.20
2017-08-07T15:01:33.080Z,16.90
2017-08-07T15:03:59.249Z,15.60
2017-08-07T15:06:25.431Z,16.80
2017-08-07T15:08:51.582Z,17.30
2017-08-07T15:11:20.903Z,18.00
2017-08-07T15:13:47.046Z,18.10
2017-08-07T15:16:13.200Z,18.80
2017-08-07T15:18:39.373Z,18.80
2017-08-07T15:21:05.519Z,18.80
2017-08-07T15:23:32.477Z,18.70
2017-08-07T15:26:02.345Z,18.70
2017-08-07T15:28:28.510Z,18.50
2017-08-07T15:30:54.654Z,18.60
2017-08-07T15:33:20.840Z,19.20
2017-08-07T15:35:46.979Z,20.30
2017-08-07T15:38:13.140Z,20.10
2017-08-07T15:40:39.307Z,20.70
2017-08-07T15:43:05.482Z,20.80
2017-08-07T15:45:31.655Z,20.50
2017-08-07T15:47:58.903Z,20.80
2017-08-07T15:50:25.081Z,20.30
2017-08-07T15:52:51.267Z,20.30
2017-08-07T15:55:17.416Z,20.50
2017-08-07T15:57:44.317Z,20.70
2017-08-07T16:00:10.508Z,20.70
2017-08-07T16:02:36.709Z,20.80
2017-08-07T16:05:02.915Z,20.70
2017-08-07T16:07:29.071Z,20.80
2017-08-07T16:09:55.250Z,19.80
2017-08-07T16:12:21.678Z,20.10
2017-08-07T16:14:49.465Z,19.80
2017-08-07T16:17:15.776Z,19.30
2017-08-07T16:19:42.989Z,20.00
2017-08-07T16:22:09.332Z,20.00
2017-08-07T16:24:35.541Z,20.10
2017-08-07T16:27:01.713Z,19.90
2017-08-07T16:29:27.960Z,20.40
2017-08-07T16:31:54.148Z,20.60
2017-08-07T16:34:20.312Z,19.30
2017-08-07T16:36:47.393Z,20.10
2017-08-07T16:39:13.537Z,20.20
2017-08-07T16:41:39.730Z,20.80
2017-08-07T16:44:05.899Z,20.90
2017-08-07T16:46:32.075Z,20.40
2017-08-07T16:48:58.232Z,20.30
2017-08-07T16:51:24.411Z,20.60
2017-08-07T16:53:51.294Z,20.50
2017-08-07T16:56:17.471Z,20.50
2017-08-07T16:58:44.343Z,21.10
2017-08-07T17:01:10.519Z,21.10
2017-08-07T17:03:36.679Z,21.50
2017-08-07T17:06:02.873Z,20.00
2017-08-07T17:08:29.047Z,20.40
2017-08-07T17:10:55.955Z,20.60
2017-08-07T17:13:22.843Z,20.50
2017-08-07T17:15:49.027Z,20.30
2017-08-07T17:18:15.752Z,21.80
2017-08-07T17:20:41.915Z,22.80
2017-08-07T17:23:08.396Z,22.60
2017-08-07T17:25:34.587Z,23.50
2017-08-07T17:28:00.787Z,22.40
2017-08-07T17:30:27.161Z,22.80
2017-08-07T17:32:53.384Z,23.80
2017-08-07T17:35:19.584Z,23.30
2017-08-07T17:37:45.763Z,23.20
2017-08-07T17:40:11.922Z,23.70
2017-08-07T17:42:38.067Z,23.50
2017-08-07T17:45:04.934Z,24.60
2017-08-07T17:47:31.115Z,24.60
2017-08-07T17:49:57.260Z,25.00
2017-08-07T17:52:23.398Z,25.30
2017-08-07T17:54:49.566Z,25.50
2017-08-07T17:57:15.730Z,26.10
2017-08-07T17:59:41.927Z,26.10
2017-08-07T18:02:08.100Z,26.10
2017-08-07T18:04:34.275Z,26.40
2017-08-07T18:07:00.439Z,26.50
2017-08-07T18:09:26.588Z,26.50
2017-08-07T18:11:52.749Z,26.80
2017-08-07T18:14:18.911Z,27.40
2017-08-07T18:16:45.059Z,27.40
2017-08-07T18:19:11.219Z,27.30
2017-08-07T18:21:37.354Z,27.50
2017-08-07T18:24:03.483Z,27.70
2017-08-07T18:26:30.368Z,28.80
2017-08-07T18:28:56.512Z,28.20
2017-08-07T18:31:22.663Z,28.60
2017-08-07T18:33:49.206Z,28.70
2017-08-07T18:36:15.666Z,29.70
2017-08-07T18:38:41.787Z,29.80
2017-08-07T18:41:08.690Z,30.70
2017-08-07T18:43:34.838Z,30.70
2017-08-07T18:46:01.000Z,30.90
2017-08-07T18:48:27.139Z,30.60
2017-08-07T18:50:53.307Z,31.80
2017-08-07T18:53:19.458Z,31.50
2017-08-07T18:55:46.381Z,31.00
2017-08-07T18:58:12.526Z,30.90
2017-08-07T19:00:39.399Z,30.00
2017-08-07T19:03:05.547Z,30.00
2017-08-07T19:05:31.695Z,30.20
2017-08-07T19:07:57.833Z,31.80
2017-08-07T19:10:23.964Z,32.20
2017-08-07T19:12:50.152Z,32.50
2017-08-07T19:15:16.294Z,32.30
2017-08-07T19:17:42.478Z,33.20
2017-08-07T19:20:08.667Z,33.10
2017-08-07T19:22:34.827Z,33.10
2017-08-07T19:25:00.972Z,33.00
2017-08-07T19:27:27.148Z,32.80
2017-08-07T19:29:53.275Z,32.80
2017-08-07T19:32:19.422Z,33.50
2017-08-07T19:34:45.567Z,34.20
2017-08-07T19:37:11.735Z,34.70
2017-08-07T19:39:37.859Z,34.40
2017-08-07T19:42:04.000Z,34.50
2017-08-07T19:44:30.121Z,35.10
2017-08-07T19:46:56.725Z,34.40
2017-08-07T19:49:23.011Z,34.80
2017-08-07T19:51:49.167Z,34.40
2017-08-07T19:54:15.415Z,34.60
2017-08-07T19:56:42.351Z,35.50
2017-08-07T19:59:08.475Z,35.50
2017-08-07T20:01:34.639Z,36.00
2017-08-07T20:04:00.787Z,36.20
2017-08-07T20:06:27.060Z,36.30
2017-08-07T20:08:53.239Z,36.10
2017-08-07T20:11:19.422Z,36.00
2017-08-07T20:13:46.579Z,36.80
2017-08-07T20:16:12.716Z,37.40
2017-08-07T20:18:38.921Z,37.40
2017-08-07T20:21:05.074Z,38.10
2017-08-07T20:23:31.238Z,38.70
2017-08-07T20:25:57.392Z,38.60
2017-08-07T20:28:23.558Z,38.30
2017-08-07T20:30:49.708Z,38.50
2017-08-07T20:33:15.868Z,39.20
2017-08-07T20:35:41.998Z,39.80
2017-08-07T20:38:08.175Z,40.00
2017-08-07T20:40:35.051Z,40.10
2017-08-07T20:43:01.212Z,40.00
2017-08-07T20:45:27.350Z,40.60
2017-08-07T20:47:53.523Z,40.60
2017-08-07T20:50:19.654Z,41.00
2017-08-07T20:52:46.595Z,41.50
2017-08-07T20:55:12.759Z,41.50
2017-08-07T20:57:38.922Z,41.80
2017-08-07T21:00:05.063Z,41.40
2017-08-07T21:02:31.235Z,42.00
2017-08-07T21:04:57.362Z,42.60
2017-08-07T21:07:23.503Z,43.10
2017-08-07T21:09:49.680Z,43.50
2017-08-07T21:12:15.863Z,43.60
2017-08-07T21:14:42.079Z,43.90
2017-08-07T21:17:08.971Z,43.70
2017-08-07T21:19:35.143Z,43.70
2017-08-07T21:22:01.299Z,43.70
2017-08-07T21:24:27.483Z,44.00
2017-08-07T21:26:53.646Z,44.20
2017-08-07T21:29:19.808Z,44.50
2017-08-07T21:31:45.965Z,44.40
2017-08-07T21:34:12.148Z,44.30
2017-08-07T21:36:38.287Z,44.00
2017-08-07T21:39:04.527Z,44.10
2017-08-07T21:41:31.494Z,44.70
2017-08-07T21:43:57.660Z,44.70
2017-08-07T21:46:23.832Z,44.80
2017-08-07T21:48:49.985Z,45.40
2017-08-07T21:51:16.902Z,45.10
2017-08-07T21:53:43.082Z,45.30
2017-08-07T21:56:09.383Z,45.80
2017-08-07T21:58:35.583Z,45.80
2017-08-07T22:01:01.731Z,45.80
2017-08-07T22:03:27.900Z,46.10
2017-08-07T22:05:54.051Z,45.60
2017-08-07T22:08:20.203Z,45.60
2017-08-07T22:10:46.400Z,45.90
2017-08-07T22:13:12.576Z,46.00
2017-08-07T22:15:38.840Z,46.40
2017-08-07T22:18:05.746Z,46.20
2017-08-07T22:20:31.957Z,46.20
2017-08-07T22:22:58.133Z,46.20
2017-08-07T22:25:24.291Z,46.60
2017-08-07T22:27:50.430Z,46.60
2017-08-07T22:30:17.331Z,46.70
2017-08-07T22:32:43.475Z,46.70
2017-08-07T22:35:10.366Z,47.30
2017-08-07T22:37:36.491Z,47.30
2017-08-07T22:40:02.667Z,47.40
2017-08-07T22:42:28.806Z,47.30
2017-08-07T22:44:55.009Z,47.80
2017-08-07T22:47:21.176Z,47.70
2017-08-07T22:49:47.323Z,47.70
2017-08-07T22:52:13.507Z,48.20
2017-08-07T22:54:39.657Z,48.00
2017-08-07T22:57:05.853Z,47.90
2017-08-07T22:59:32.054Z,48.50
2017-08-07T23:01:58.220Z,48.40
2017-08-07T23:04:24.366Z,48.60
2017-08-07T23:06:50.526Z,48.80
2017-08-07T23:09:16.677Z,49.00
2017-08-07T23:11:42.859Z,49.00
2017-08-07T23:14:09.019Z,49.40
2017-08-07T23:16:35.186Z,50.10
2017-08-07T23:19:01.366Z,49.40
2017-08-07T23:21:27.631Z,49.30
2017-08-07T23:23:53.806Z,49.30
2017-08-07T23:26:19.955Z,49.30
2017-08-07T23:28:46.093Z,49.30
2017-08-07T23:31:12.236Z,49.40
2017-08-07T23:33:38.387Z,49.90
2017-08-07T23:36:05.313Z,50.20
2017-08-07T23:38:31.489Z,50.20
2017-08-07T23:40:57.663Z,50.40
2017-08-07T23:43:23.851Z,50.40
2017-08-07T23:45:50.746Z,50.20
2017-08-07T23:48:16.899Z,50.40
2017-08-07T23:50:43.801Z,50.20
2017-08-07T23:53:09.984Z,50.20
2017-08-07T23:55:36.135Z,50.30
2017-08-07T23:58:02.305Z,50.30
